sensor_id;sensor_type;location;lat;lon;timestamp;pressure;altitude;pressure_sealevel;temperature;humidity
40612;BME280;26317;44.894;20.286;2023-04-06T00:01:31;100895.22;;;3.17;86.90
40612;BME280;26317;44.894;20.286;2023-04-06T00:04:02;100900.09;;;3.20;87.34
40612;BME280;26317;44.894;20.286;2023-04-06T00:06:33;100918.97;;;3.30;87.34
40612;BME280;26317;44.894;20.286;2023-04-06T00:09:04;100898.44;;;3.19;87.29
40612;BME280;26317;44.894;20.286;2023-04-06T00:11:37;100913.91;;;3.22;87.09
40612;BME280;26317;44.894;20.286;2023-04-06T00:14:08;100914.47;;;3.31;86.87
40612;BME280;26317;44.894;20.286;2023-04-06T00:16:38;100901.53;;;3.16;87.13
40612;BME280;26317;44.894;20.286;2023-04-06T00:19:08;100914.53;;;3.24;86.46
40612;BME280;26317;44.894;20.286;2023-04-06T00:21:39;100909.81;;;3.26;86.54
40612;BME280;26317;44.894;20.286;2023-04-06T00:24:10;100911.00;;;3.30;86.06
40612;BME280;26317;44.894;20.286;2023-04-06T00:26:43;100868.78;;;3.04;85.73
40612;BME280;26317;44.894;20.286;2023-04-06T00:29:13;100868.34;;;3.07;85.77
40612;BME280;26317;44.894;20.286;2023-04-06T00:31:44;100911.19;;;3.35;85.41
40612;BME280;26317;44.894;20.286;2023-04-06T00:34:15;100900.00;;;3.33;85.43
40612;BME280;26317;44.894;20.286;2023-04-06T00:36:45;100905.44;;;3.38;86.04
40612;BME280;26317;44.894;20.286;2023-04-06T00:39:16;100901.19;;;3.37;85.11
40612;BME280;26317;44.894;20.286;2023-04-06T00:41:50;100910.53;;;3.46;85.37
40612;BME280;26317;44.894;20.286;2023-04-06T00:44:22;100872.72;;;3.26;85.12
40612;BME280;26317;44.894;20.286;2023-04-06T00:46:52;100875.63;;;3.18;85.43
40612;BME280;26317;44.894;20.286;2023-04-06T00:49:23;100909.16;;;3.37;86.11
40612;BME280;26317;44.894;20.286;2023-04-06T00:51:54;100901.22;;;3.31;86.10
40612;BME280;26317;44.894;20.286;2023-04-06T00:54:25;100907.34;;;3.31;85.87
40612;BME280;26317;44.894;20.286;2023-04-06T00:56:58;100909.03;;;3.26;85.82
40612;BME280;26317;44.894;20.286;2023-04-06T00:59:29;100876.69;;;3.10;86.47
40612;BME280;26317;44.894;20.286;2023-04-06T01:02:03;100878.91;;;3.13;86.63
40612;BME280;26317;44.894;20.286;2023-04-06T01:04:41;100895.34;;;3.29;86.88
40612;BME280;26317;44.894;20.286;2023-04-06T01:07:24;100905.72;;;3.30;87.06
40612;BME280;26317;44.894;20.286;2023-04-06T01:10:24;100892.31;;;3.25;87.03
40612;BME280;26317;44.894;20.286;2023-04-06T01:13:12;100891.13;;;3.21;87.74
40612;BME280;26317;44.894;20.286;2023-04-06T01:15:47;100897.44;;;3.20;86.69
40612;BME280;26317;44.894;20.286;2023-04-06T01:18:26;100896.41;;;3.21;86.73
40612;BME280;26317;44.894;20.286;2023-04-06T01:21:14;100900.28;;;3.18;87.67
40612;BME280;26317;44.894;20.286;2023-04-06T01:24:11;100864.31;;;2.98;87.06
40612;BME280;26317;44.894;20.286;2023-04-06T01:26:59;100887.09;;;3.05;87.32
40612;BME280;26317;44.894;20.286;2023-04-06T01:29:43;100857.06;;;2.87;87.72
40612;BME280;26317;44.894;20.286;2023-04-06T01:32:21;100869.44;;;2.99;87.83
40612;BME280;26317;44.894;20.286;2023-04-06T01:34:52;100856.19;;;2.93;88.29
40612;BME280;26317;44.894;20.286;2023-04-06T01:37:23;100856.19;;;2.93;87.87
40612;BME280;26317;44.894;20.286;2023-04-06T01:39:59;100880.59;;;3.08;87.33
40612;BME280;26317;44.894;20.286;2023-04-06T01:42:40;100877.31;;;3.06;87.58
40612;BME280;26317;44.894;20.286;2023-04-06T01:45:16;100865.53;;;3.02;88.61
40612;BME280;26317;44.894;20.286;2023-04-06T01:47:47;100859.66;;;3.00;88.57
40612;BME280;26317;44.894;20.286;2023-04-06T01:50:21;100848.00;;;3.01;88.41
40612;BME280;26317;44.894;20.286;2023-04-06T01:52:51;100853.72;;;2.98;88.51
40612;BME280;26317;44.894;20.286;2023-04-06T01:55:26;100857.00;;;3.00;88.08
40612;BME280;26317;44.894;20.286;2023-04-06T01:58:17;100847.06;;;2.89;88.64
40612;BME280;26317;44.894;20.286;2023-04-06T02:00:48;100849.06;;;2.93;88.98
40612;BME280;26317;44.894;20.286;2023-04-06T02:03:18;100850.88;;;2.99;88.45
40612;BME280;26317;44.894;20.286;2023-04-06T02:05:58;100848.00;;;3.01;88.96
40612;BME280;26317;44.894;20.286;2023-04-06T02:08:34;100844.34;;;3.02;88.93
40612;BME280;26317;44.894;20.286;2023-04-06T02:11:07;100845.59;;;2.93;88.71
40612;BME280;26317;44.894;20.286;2023-04-06T02:13:43;100835.19;;;2.98;89.17
40612;BME280;26317;44.894;20.286;2023-04-06T02:16:15;100830.16;;;2.90;88.62
40612;BME280;26317;44.894;20.286;2023-04-06T02:18:46;100841.09;;;3.00;88.85
40612;BME280;26317;44.894;20.286;2023-04-06T02:21:16;100833.97;;;3.00;88.80
40612;BME280;26317;44.894;20.286;2023-04-06T02:23:47;100840.66;;;3.03;88.91
40612;BME280;26317;44.894;20.286;2023-04-06T02:26:21;100804.13;;;2.80;89.06
40612;BME280;26317;44.894;20.286;2023-04-06T02:28:51;100849.16;;;3.11;88.96
40612;BME280;26317;44.894;20.286;2023-04-06T02:31:22;100855.75;;;3.02;88.70
40612;BME280;26317;44.894;20.286;2023-04-06T02:33:53;100856.34;;;3.04;88.76
40612;BME280;26317;44.894;20.286;2023-04-06T02:36:25;100847.22;;;2.94;88.98
40612;BME280;26317;44.894;20.286;2023-04-06T02:38:55;100832.22;;;2.88;89.21
40612;BME280;26317;44.894;20.286;2023-04-06T02:41:29;100820.81;;;2.81;89.80
40612;BME280;26317;44.894;20.286;2023-04-06T02:44:00;100853.91;;;3.03;89.45
40612;BME280;26317;44.894;20.286;2023-04-06T02:46:37;100848.88;;;2.95;90.09
40612;BME280;26317;44.894;20.286;2023-04-06T02:49:07;100836.06;;;2.92;90.90
40612;BME280;26317;44.894;20.286;2023-04-06T02:51:38;100847.22;;;2.94;90.82
40612;BME280;26317;44.894;20.286;2023-04-06T02:54:18;100834.25;;;2.86;92.08
40612;BME280;26317;44.894;20.286;2023-04-06T02:56:51;100849.25;;;2.98;92.03
40612;BME280;26317;44.894;20.286;2023-04-06T02:59:25;100845.59;;;2.99;92.14
40612;BME280;26317;44.894;20.286;2023-04-06T03:02:05;100829.38;;;2.83;92.14
40612;BME280;26317;44.894;20.286;2023-04-06T03:04:36;100853.16;;;2.96;92.54
40612;BME280;26317;44.894;20.286;2023-04-06T03:07:16;100848.06;;;2.94;92.35
40612;BME280;26317;44.894;20.286;2023-04-06T03:09:47;100838.09;;;2.90;92.43
40612;BME280;26317;44.894;20.286;2023-04-06T03:12:20;100834.31;;;2.72;92.27
40612;BME280;26317;44.894;20.286;2023-04-06T03:15:10;100849.63;;;2.70;92.32
40612;BME280;26317;44.894;20.286;2023-04-06T03:17:45;100847.38;;;2.67;92.78
40612;BME280;26317;44.894;20.286;2023-04-06T03:20:35;100846.97;;;2.64;92.97
40612;BME280;26317;44.894;20.286;2023-04-06T03:23:05;100825.47;;;2.47;93.17
40612;BME280;26317;44.894;20.286;2023-04-06T03:25:40;100838.53;;;2.42;93.09
40612;BME280;26317;44.894;20.286;2023-04-06T03:28:17;100846.50;;;2.36;93.60
40612;BME280;26317;44.894;20.286;2023-04-06T03:30:55;100834.13;;;2.29;93.80
40612;BME280;26317;44.894;20.286;2023-04-06T03:33:50;100842.59;;;2.38;94.16
40612;BME280;26317;44.894;20.286;2023-04-06T03:36:25;100815.00;;;2.21;94.05
40612;BME280;26317;44.894;20.286;2023-04-06T03:38:56;100819.06;;;2.23;94.32
40612;BME280;26317;44.894;20.286;2023-04-06T03:41:30;100809.72;;;2.14;93.88
40612;BME280;26317;44.894;20.286;2023-04-06T03:44:23;100845.06;;;2.40;94.11
40612;BME280;26317;44.894;20.286;2023-04-06T03:46:53;100835.72;;;2.37;93.35
40612;BME280;26317;44.894;20.286;2023-04-06T03:49:25;100846.31;;;2.37;92.89
40612;BME280;26317;44.894;20.286;2023-04-06T03:51:56;100828.25;;;2.21;92.78
40612;BME280;26317;44.894;20.286;2023-04-06T03:54:28;100848.13;;;2.30;92.92
40612;BME280;26317;44.894;20.286;2023-04-06T03:56:59;100845.31;;;2.25;92.88
40612;BME280;26317;44.894;20.286;2023-04-06T03:59:32;100846.69;;;2.34;93.09
40612;BME280;26317;44.894;20.286;2023-04-06T04:02:02;100838.53;;;2.42;92.64
40612;BME280;26317;44.894;20.286;2023-04-06T04:04:34;100817.81;;;2.26;92.36
40612;BME280;26317;44.894;20.286;2023-04-06T04:07:05;100856.03;;;2.43;92.19
40612;BME280;26317;44.894;20.286;2023-04-06T04:09:36;100853.00;;;2.40;92.10
40612;BME280;26317;44.894;20.286;2023-04-06T04:12:07;100850.38;;;2.33;92.54
40612;BME280;26317;44.894;20.286;2023-04-06T04:14:40;100842.06;;;2.29;92.77
40612;BME280;26317;44.894;20.286;2023-04-06T04:17:11;100855.69;;;2.33;92.77
40612;BME280;26317;44.894;20.286;2023-04-06T04:19:41;100852.59;;;2.36;92.70
40612;BME280;26317;44.894;20.286;2023-04-06T04:22:13;100857.28;;;2.34;92.75
40612;BME280;26317;44.894;20.286;2023-04-06T04:24:44;100850.38;;;2.33;92.24
40612;BME280;26317;44.894;20.286;2023-04-06T04:27:14;100849.19;;;2.29;92.42
40612;BME280;26317;44.894;20.286;2023-04-06T04:29:50;100821.13;;;2.15;92.29
40612;BME280;26317;44.894;20.286;2023-04-06T04:32:21;100859.53;;;2.30;92.40
40612;BME280;26317;44.894;20.286;2023-04-06T04:34:57;100855.91;;;2.25;92.84
40612;BME280;26317;44.894;20.286;2023-04-06T04:37:37;100840.25;;;2.10;93.10
40612;BME280;26317;44.894;20.286;2023-04-06T04:40:10;100851.25;;;2.20;93.20
40612;BME280;26317;44.894;20.286;2023-04-06T04:42:51;100850.66;;;2.12;93.69
40612;BME280;26317;44.894;20.286;2023-04-06T04:45:34;100853.69;;;2.09;93.57
40612;BME280;26317;44.894;20.286;2023-04-06T04:48:24;100857.75;;;2.18;93.68
40612;BME280;26317;44.894;20.286;2023-04-06T04:50:59;100843.72;;;2.11;93.28
40612;BME280;26317;44.894;20.286;2023-04-06T04:53:41;100854.09;;;2.19;93.39
40612;BME280;26317;44.894;20.286;2023-04-06T04:56:25;100857.31;;;2.27;93.04
40612;BME280;26317;44.894;20.286;2023-04-06T04:59:06;100848.78;;;2.19;92.55
40612;BME280;26317;44.894;20.286;2023-04-06T05:01:42;100852.25;;;2.19;92.67
40612;BME280;26317;44.894;20.286;2023-04-06T05:04:26;100859.75;;;2.29;92.75
40612;BME280;26317;44.894;20.286;2023-04-06T05:07:05;100830.50;;;2.11;92.17
40612;BME280;26317;44.894;20.286;2023-04-06T05:09:39;100852.06;;;2.21;92.06
40612;BME280;26317;44.894;20.286;2023-04-06T05:12:10;100857.50;;;2.26;91.94
40612;BME280;26317;44.894;20.286;2023-04-06T05:14:53;100846.53;;;2.22;92.43
40612;BME280;26317;44.894;20.286;2023-04-06T05:17:28;100853.66;;;2.28;91.87
40612;BME280;26317;44.894;20.286;2023-04-06T05:19:59;100857.75;;;2.24;91.54
40612;BME280;26317;44.894;20.286;2023-04-06T05:22:35;100860.16;;;2.33;91.25
40612;BME280;26317;44.894;20.286;2023-04-06T05:25:09;100838.00;;;2.20;91.28
40612;BME280;26317;44.894;20.286;2023-04-06T05:27:40;100827.47;;;2.07;91.18
40612;BME280;26317;44.894;20.286;2023-04-06T05:30:26;100835.56;;;2.19;91.50
40612;BME280;26317;44.894;20.286;2023-04-06T05:33:00;100848.31;;;2.35;91.52
40612;BME280;26317;44.894;20.286;2023-04-06T05:35:43;100803.03;;;2.12;90.82
40612;BME280;26317;44.894;20.286;2023-04-06T05:38:14;100840.78;;;2.45;90.81
40612;BME280;26317;44.894;20.286;2023-04-06T05:40:45;100850.69;;;2.56;91.16
40612;BME280;26317;44.894;20.286;2023-04-06T05:43:21;100845.41;;;2.56;90.70
40612;BME280;26317;44.894;20.286;2023-04-06T05:45:56;100829.16;;;2.46;91.08
40612;BME280;26317;44.894;20.286;2023-04-06T05:48:29;100849.47;;;2.52;90.97
40612;BME280;26317;44.894;20.286;2023-04-06T05:51:02;100843.19;;;2.53;91.42
40612;BME280;26317;44.894;20.286;2023-04-06T05:53:42;100836.44;;;2.57;91.82
40612;BME280;26317;44.894;20.286;2023-04-06T05:56:13;100834.13;;;2.67;91.67
40612;BME280;26317;44.894;20.286;2023-04-06T05:58:44;100833.94;;;2.69;91.48
40612;BME280;26317;44.894;20.286;2023-04-06T06:01:21;100824.72;;;2.78;91.80
40612;BME280;26317;44.894;20.286;2023-04-06T06:03:54;100777.75;;;2.60;90.59
40612;BME280;26317;44.894;20.286;2023-04-06T06:06:29;100835.00;;;2.99;89.86
40612;BME280;26317;44.894;20.286;2023-04-06T06:09:12;100832.09;;;3.01;88.52
40612;BME280;26317;44.894;20.286;2023-04-06T06:11:53;100830.81;;;3.10;89.09
40612;BME280;26317;44.894;20.286;2023-04-06T06:14:26;100820.56;;;3.20;88.26
40612;BME280;26317;44.894;20.286;2023-04-06T06:16:58;100836.75;;;3.37;87.27
40612;BME280;26317;44.894;20.286;2023-04-06T06:19:31;100831.47;;;3.37;86.88
40612;BME280;26317;44.894;20.286;2023-04-06T06:22:05;100824.53;;;3.36;86.69
40612;BME280;26317;44.894;20.286;2023-04-06T06:24:40;100826.53;;;3.40;87.91
40612;BME280;26317;44.894;20.286;2023-04-06T06:27:12;100837.41;;;3.57;87.55
40612;BME280;26317;44.894;20.286;2023-04-06T06:29:43;100839.66;;;3.78;87.21
40612;BME280;26317;44.894;20.286;2023-04-06T06:32:13;100823.88;;;3.65;85.23
40612;BME280;26317;44.894;20.286;2023-04-06T06:34:51;100835.53;;;3.82;83.48
40612;BME280;26317;44.894;20.286;2023-04-06T06:37:21;100809.94;;;3.69;82.86
40612;BME280;26317;44.894;20.286;2023-04-06T06:39:57;100832.91;;;4.00;82.95
40612;BME280;26317;44.894;20.286;2023-04-06T06:42:30;100831.66;;;4.03;80.50
40612;BME280;26317;44.894;20.286;2023-04-06T06:45:36;100821.13;;;3.96;79.84
40612;BME280;26317;44.894;20.286;2023-04-06T06:48:06;100829.06;;;4.14;79.68
40612;BME280;26317;44.894;20.286;2023-04-06T06:50:40;100814.47;;;4.05;75.11
40612;BME280;26317;44.894;20.286;2023-04-06T06:53:12;100832.91;;;4.18;75.89
40612;BME280;26317;44.894;20.286;2023-04-06T06:55:43;100826.94;;;4.23;74.83
40612;BME280;26317;44.894;20.286;2023-04-06T06:58:19;100836.59;;;4.36;74.39
40612;BME280;26317;44.894;20.286;2023-04-06T07:00:49;100835.34;;;4.38;73.60
40612;BME280;26317;44.894;20.286;2023-04-06T07:03:20;100844.97;;;4.51;71.00
40612;BME280;26317;44.894;20.286;2023-04-06T07:05:53;100854.81;;;4.50;71.26
40612;BME280;26317;44.894;20.286;2023-04-06T07:08:24;100860.34;;;4.67;69.16
40612;BME280;26317;44.894;20.286;2023-04-06T07:10:55;100854.22;;;4.67;70.95
40612;BME280;26317;44.894;20.286;2023-04-06T07:13:26;100839.75;;;4.44;71.85
40612;BME280;26317;44.894;20.286;2023-04-06T07:15:58;100844.91;;;4.57;71.09
40612;BME280;26317;44.894;20.286;2023-04-06T07:18:29;100821.63;;;4.41;70.63
40612;BME280;26317;44.894;20.286;2023-04-06T07:21:05;100851.09;;;4.70;70.83
40612;BME280;26317;44.894;20.286;2023-04-06T07:23:35;100852.56;;;4.66;69.63
40612;BME280;26317;44.894;20.286;2023-04-06T07:26:06;100860.34;;;4.67;70.05
40612;BME280;26317;44.894;20.286;2023-04-06T07:28:37;100859.56;;;4.78;69.25
40612;BME280;26317;44.894;20.286;2023-04-06T07:31:09;100856.72;;;4.91;68.88
40612;BME280;26317;44.894;20.286;2023-04-06T07:33:39;100841.25;;;4.88;66.85
40612;BME280;26317;44.894;20.286;2023-04-06T07:36:13;100847.03;;;4.97;67.22
40612;BME280;26317;44.894;20.286;2023-04-06T07:38:44;100843.34;;;4.98;66.66
40612;BME280;26317;44.894;20.286;2023-04-06T07:41:17;100840.16;;;5.07;68.04
40612;BME280;26317;44.894;20.286;2023-04-06T07:43:48;100835.63;;;5.08;67.08
40612;BME280;26317;44.894;20.286;2023-04-06T07:46:18;100851.41;;;5.21;67.20
40612;BME280;26317;44.894;20.286;2023-04-06T07:48:50;100852.09;;;5.28;69.03
40612;BME280;26317;44.894;20.286;2023-04-06T07:51:23;100852.09;;;5.28;68.18
40612;BME280;26317;44.894;20.286;2023-04-06T07:53:54;100854.44;;;5.36;69.06
40612;BME280;26317;44.894;20.286;2023-04-06T07:56:24;100833.34;;;5.23;67.08
40612;BME280;26317;44.894;20.286;2023-04-06T07:58:55;100858.84;;;5.42;67.52
40612;BME280;26317;44.894;20.286;2023-04-06T08:01:27;100859.09;;;5.52;68.98
40612;BME280;26317;44.894;20.286;2023-04-06T08:03:57;100856.22;;;5.66;66.58
40612;BME280;26317;44.894;20.286;2023-04-06T08:06:32;100844.19;;;5.75;67.12
40612;BME280;26317;44.894;20.286;2023-04-06T08:09:04;100829.94;;;5.81;65.13
40612;BME280;26317;44.894;20.286;2023-04-06T08:11:34;100810.88;;;5.84;63.86
40612;BME280;26317;44.894;20.286;2023-04-06T08:14:04;100842.59;;;6.09;62.71
40612;BME280;26317;44.894;20.286;2023-04-06T08:16:35;100841.44;;;6.05;64.86
40612;BME280;26317;44.894;20.286;2023-04-06T08:19:05;100854.00;;;5.86;64.20
40612;BME280;26317;44.894;20.286;2023-04-06T08:21:39;100832.03;;;5.79;65.97
40612;BME280;26317;44.894;20.286;2023-04-06T08:24:10;100834.38;;;5.87;66.05
40612;BME280;26317;44.894;20.286;2023-04-06T08:26:40;100845.25;;;6.09;65.39
40612;BME280;26317;44.894;20.286;2023-04-06T08:29:11;100840.63;;;6.04;64.88
40612;BME280;26317;44.894;20.286;2023-04-06T08:31:41;100839.91;;;5.97;63.91
40612;BME280;26317;44.894;20.286;2023-04-06T08:34:12;100823.94;;;5.97;62.37
40612;BME280;26317;44.894;20.286;2023-04-06T08:36:45;100837.81;;;6.11;61.35
40612;BME280;26317;44.894;20.286;2023-04-06T08:39:17;100830.44;;;6.13;63.44
40612;BME280;26317;44.894;20.286;2023-04-06T08:41:53;100833.09;;;6.13;60.18
40612;BME280;26317;44.894;20.286;2023-04-06T08:44:24;100839.44;;;6.12;59.97
40612;BME280;26317;44.894;20.286;2023-04-06T08:46:55;100843.47;;;6.14;59.63
40612;BME280;26317;44.894;20.286;2023-04-06T08:49:25;100838.28;;;6.19;59.15
40612;BME280;26317;44.894;20.286;2023-04-06T08:51:59;100812.47;;;6.08;59.12
40612;BME280;26317;44.894;20.286;2023-04-06T08:54:30;100843.94;;;6.34;56.68
40612;BME280;26317;44.894;20.286;2023-04-06T08:57:02;100841.94;;;6.41;58.24
40612;BME280;26317;44.894;20.286;2023-04-06T08:59:33;100838.09;;;6.49;55.14
40612;BME280;26317;44.894;20.286;2023-04-06T09:02:06;100820.38;;;6.43;57.73
40612;BME280;26317;44.894;20.286;2023-04-06T09:04:39;100835.28;;;6.56;57.56
40612;BME280;26317;44.894;20.286;2023-04-06T09:07:12;100846.84;;;6.61;53.02
40612;BME280;26317;44.894;20.286;2023-04-06T09:09:43;100834.56;;;6.60;52.43
40612;BME280;26317;44.894;20.286;2023-04-06T09:12:25;100835.88;;;6.58;54.00
40612;BME280;26317;44.894;20.286;2023-04-06T09:14:56;100831.31;;;6.70;55.00
40612;BME280;26317;44.894;20.286;2023-04-06T09:17:28;100836.91;;;6.85;54.79
40612;BME280;26317;44.894;20.286;2023-04-06T09:20:01;100832.34;;;6.97;54.17
40612;BME280;26317;44.894;20.286;2023-04-06T09:22:38;100835.03;;;6.97;52.24
40612;BME280;26317;44.894;20.286;2023-04-06T09:25:09;100811.34;;;6.72;53.18
40612;BME280;26317;44.894;20.286;2023-04-06T09:27:40;100806.06;;;6.89;53.30
40612;BME280;26317;44.894;20.286;2023-04-06T09:30:12;100831.63;;;7.18;52.63
40612;BME280;26317;44.894;20.286;2023-04-06T09:32:45;100823.41;;;7.36;52.45
40612;BME280;26317;44.894;20.286;2023-04-06T09:35:16;100816.78;;;7.22;51.14
40612;BME280;26317;44.894;20.286;2023-04-06T09:37:51;100823.47;;;7.08;49.79
40612;BME280;26317;44.894;20.286;2023-04-06T09:40:22;100816.63;;;7.12;51.75
40612;BME280;26317;44.894;20.286;2023-04-06T09:42:53;100803.19;;;7.07;51.49
40612;BME280;26317;44.894;20.286;2023-04-06T09:45:26;100814.03;;;7.17;50.21
40612;BME280;26317;44.894;20.286;2023-04-06T09:47:59;100821.31;;;7.05;49.79
40612;BME280;26317;44.894;20.286;2023-04-06T09:50:31;100783.47;;;7.08;52.79
40612;BME280;26317;44.894;20.286;2023-04-06T09:53:08;100820.34;;;7.28;54.18
40612;BME280;26317;44.894;20.286;2023-04-06T09:55:42;100804.97;;;7.35;50.81
40612;BME280;26317;44.894;20.286;2023-04-06T09:58:15;100817.75;;;7.50;50.86
40612;BME280;26317;44.894;20.286;2023-04-06T10:00:50;100809.53;;;7.51;51.27
40612;BME280;26317;44.894;20.286;2023-04-06T10:03:31;100804.81;;;7.58;52.45
40612;BME280;26317;44.894;20.286;2023-04-06T10:06:07;100813.03;;;7.73;50.92
40612;BME280;26317;44.894;20.286;2023-04-06T10:08:45;100811.34;;;7.84;51.88
40612;BME280;26317;44.894;20.286;2023-04-06T10:11:18;100814.97;;;7.78;53.40
40612;BME280;26317;44.894;20.286;2023-04-06T10:13:48;100818.66;;;7.94;52.63
40612;BME280;26317;44.894;20.286;2023-04-06T10:16:22;100821.09;;;7.95;48.91
40612;BME280;26317;44.894;20.286;2023-04-06T10:18:56;100811.63;;;8.04;50.51
40612;BME280;26317;44.894;20.286;2023-04-06T10:21:29;100807.78;;;8.17;52.25
40612;BME280;26317;44.894;20.286;2023-04-06T10:24:08;100798.81;;;8.28;50.43
40612;BME280;26317;44.894;20.286;2023-04-06T10:26:41;100809.38;;;8.35;51.18
40612;BME280;26317;44.894;20.286;2023-04-06T10:29:11;100807.28;;;8.20;49.45
40612;BME280;26317;44.894;20.286;2023-04-06T10:31:42;100788.50;;;8.15;49.35
40612;BME280;26317;44.894;20.286;2023-04-06T10:34:13;100797.81;;;8.29;50.00
40612;BME280;26317;44.894;20.286;2023-04-06T10:36:44;100796.88;;;8.23;49.89
40612;BME280;26317;44.894;20.286;2023-04-06T10:39:24;100786.72;;;8.20;51.52
40612;BME280;26317;44.894;20.286;2023-04-06T10:42:06;100773.88;;;8.22;50.16
40612;BME280;26317;44.894;20.286;2023-04-06T10:44:42;100767.72;;;8.39;51.20
40612;BME280;26317;44.894;20.286;2023-04-06T10:47:17;100779.22;;;8.66;51.82
40612;BME280;26317;44.894;20.286;2023-04-06T10:49:48;100767.63;;;8.82;50.73
40612;BME280;26317;44.894;20.286;2023-04-06T10:52:19;100765.06;;;8.65;48.79
40612;BME280;26317;44.894;20.286;2023-04-06T10:54:54;100761.56;;;8.65;51.10
40612;BME280;26317;44.894;20.286;2023-04-06T10:57:28;100768.75;;;8.59;48.75
40612;BME280;26317;44.894;20.286;2023-04-06T11:00:00;100750.53;;;8.56;51.69
40612;BME280;26317;44.894;20.286;2023-04-06T11:02:31;100767.38;;;8.84;50.06
40612;BME280;26317;44.894;20.286;2023-04-06T11:05:01;100762.16;;;8.99;48.28
40612;BME280;26317;44.894;20.286;2023-04-06T11:07:33;100711.69;;;8.49;49.99
40612;BME280;26317;44.894;20.286;2023-04-06T11:10:08;100763.91;;;8.83;48.86
40612;BME280;26317;44.894;20.286;2023-04-06T11:12:52;100742.72;;;8.76;49.56
40612;BME280;26317;44.894;20.286;2023-04-06T11:15:23;100744.13;;;8.89;48.58
40612;BME280;26317;44.894;20.286;2023-04-06T11:17:54;100747.91;;;8.88;48.60
40612;BME280;26317;44.894;20.286;2023-04-06T11:20:24;100729.06;;;8.78;47.58
40612;BME280;26317;44.894;20.286;2023-04-06T11:22:55;100756.00;;;8.98;46.58
40612;BME280;26317;44.894;20.286;2023-04-06T11:25:29;100738.94;;;9.04;48.47
40612;BME280;26317;44.894;20.286;2023-04-06T11:27:59;100736.94;;;9.21;49.78
40612;BME280;26317;44.894;20.286;2023-04-06T11:30:30;100744.53;;;9.35;49.41
40612;BME280;26317;44.894;20.286;2023-04-06T11:33:02;100727.47;;;9.09;46.14
40612;BME280;26317;44.894;20.286;2023-04-06T11:35:34;100733.03;;;9.02;46.91
40612;BME280;26317;44.894;20.286;2023-04-06T11:38:04;100692.78;;;8.87;49.07
40612;BME280;26317;44.894;20.286;2023-04-06T11:40:38;100711.00;;;8.90;48.65
40612;BME280;26317;44.894;20.286;2023-04-06T11:43:11;100720.59;;;8.86;47.79
40612;BME280;26317;44.894;20.286;2023-04-06T11:45:42;100729.66;;;8.80;47.18
40612;BME280;26317;44.894;20.286;2023-04-06T11:48:19;100727.38;;;8.67;49.35
40612;BME280;26317;44.894;20.286;2023-04-06T11:50:55;100728.44;;;8.66;47.74
40612;BME280;26317;44.894;20.286;2023-04-06T11:53:28;100727.78;;;8.81;46.13
40612;BME280;26317;44.894;20.286;2023-04-06T11:56:06;100716.75;;;8.77;47.86
40612;BME280;26317;44.894;20.286;2023-04-06T11:58:37;100716.75;;;8.77;50.55
40612;BME280;26317;44.894;20.286;2023-04-06T12:01:07;100719.81;;;8.59;48.54
40612;BME280;26317;44.894;20.286;2023-04-06T12:03:38;100718.59;;;8.45;48.96
40612;BME280;26317;44.894;20.286;2023-04-06T12:06:08;100707.59;;;8.41;48.96
40612;BME280;26317;44.894;20.286;2023-04-06T12:08:39;100697.16;;;8.40;49.94
40612;BME280;26317;44.894;20.286;2023-04-06T12:11:12;100709.75;;;8.44;48.60
40612;BME280;26317;44.894;20.286;2023-04-06T12:13:43;100709.47;;;8.41;50.20
40612;BME280;26317;44.894;20.286;2023-04-06T12:16:16;100694.47;;;8.40;50.19
40612;BME280;26317;44.894;20.286;2023-04-06T12:18:47;100705.00;;;8.46;48.99
40612;BME280;26317;44.894;20.286;2023-04-06T12:21:18;100676.22;;;8.31;49.29
40612;BME280;26317;44.894;20.286;2023-04-06T12:23:49;100695.53;;;8.65;49.88
40612;BME280;26317;44.894;20.286;2023-04-06T12:26:23;100700.22;;;8.80;49.04
40612;BME280;26317;44.894;20.286;2023-04-06T12:28:53;100698.09;;;8.82;47.07
40612;BME280;26317;44.894;20.286;2023-04-06T12:31:32;100703.16;;;8.78;47.65
40612;BME280;26317;44.894;20.286;2023-04-06T12:34:03;100696.69;;;8.74;47.40
40612;BME280;26317;44.894;20.286;2023-04-06T12:36:34;100701.75;;;8.71;47.86
40612;BME280;26317;44.894;20.286;2023-04-06T12:39:07;100680.06;;;8.67;50.43
40612;BME280;26317;44.894;20.286;2023-04-06T12:41:40;100655.38;;;8.55;49.81
40612;BME280;26317;44.894;20.286;2023-04-06T12:44:11;100678.66;;;8.60;49.05
40612;BME280;26317;44.894;20.286;2023-04-06T12:46:41;100688.63;;;8.69;49.62
40612;BME280;26317;44.894;20.286;2023-04-06T12:49:14;100666.56;;;8.84;48.85
40612;BME280;26317;44.894;20.286;2023-04-06T12:51:46;100682.72;;;8.99;49.92
40612;BME280;26317;44.894;20.286;2023-04-06T12:54:17;100685.88;;;8.91;48.20
40612;BME280;26317;44.894;20.286;2023-04-06T12:56:50;100656.34;;;8.76;48.46
40612;BME280;26317;44.894;20.286;2023-04-06T12:59:21;100678.34;;;8.88;48.11
40612;BME280;26317;44.894;20.286;2023-04-06T13:01:52;100672.91;;;8.78;48.97
40612;BME280;26317;44.894;20.286;2023-04-06T13:04:23;100670.47;;;8.71;48.83
40612;BME280;26317;44.894;20.286;2023-04-06T13:06:54;100663.69;;;8.59;46.92
40612;BME280;26317;44.894;20.286;2023-04-06T13:09:25;100674.38;;;8.59;47.84
40612;BME280;26317;44.894;20.286;2023-04-06T13:11:58;100643.75;;;8.45;48.61
40612;BME280;26317;44.894;20.286;2023-04-06T13:14:29;100665.84;;;8.62;49.59
40612;BME280;26317;44.894;20.286;2023-04-06T13:17:00;100665.28;;;8.60;46.39
40612;BME280;26317;44.894;20.286;2023-04-06T13:19:30;100666.41;;;8.69;45.77
40612;BME280;26317;44.894;20.286;2023-04-06T13:22:01;100664.91;;;8.78;47.56
40612;BME280;26317;44.894;20.286;2023-04-06T13:24:31;100660.94;;;8.86;47.40